createdAt,value
2023-03-02T00:02:00.882Z,20.43
2023-03-02T00:04:41.293Z,20.43
2023-03-02T00:07:11.465Z,20.23
2023-03-02T00:09:38.701Z,20.75
2023-03-02T00:12:06.957Z,20.57
2023-03-02T00:14:33.611Z,20.80
2023-03-02T00:17:00.140Z,21.93
2023-03-02T00:19:26.754Z,19.50
2023-03-02T00:21:53.565Z,22.30
2023-03-02T00:24:20.077Z,20.37
2023-03-02T00:26:46.557Z,22.30
2023-03-02T00:29:13.206Z,21.37
2023-03-02T00:31:40.140Z,21.77
2023-03-02T00:34:07.097Z,20.43
2023-03-02T00:36:33.911Z,21.70
2023-03-02T00:39:01.224Z,21.57
2023-03-02T00:41:27.776Z,20.07
2023-03-02T00:43:54.224Z,20.77
2023-03-02T00:46:23.277Z,19.63
2023-03-02T00:48:50.270Z,21.17
2023-03-02T00:51:17.578Z,20.83
2023-03-02T00:53:44.435Z,19.50
2023-03-02T00:56:11.229Z,19.60
2023-03-02T00:58:38.306Z,19.00
2023-03-02T01:01:12.098Z,19.27
2023-03-02T01:03:38.937Z,19.67
2023-03-02T01:06:06.723Z,19.80
2023-03-02T01:08:33.460Z,20.83
2023-03-02T01:10:59.953Z,20.23
2023-03-02T01:13:26.456Z,21.03
2023-03-02T01:16:01.327Z,21.90
2023-03-02T01:18:28.213Z,20.97
2023-03-02T01:21:04.712Z,21.17
2023-03-02T01:23:31.576Z,21.63
2023-03-02T01:25:58.342Z,21.30
2023-03-02T01:28:25.025Z,22.30
2023-03-02T01:30:51.737Z,20.50
2023-03-02T01:33:18.248Z,21.80
2023-03-02T01:35:46.623Z,21.97
2023-03-02T01:38:13.684Z,20.77
2023-03-02T01:40:41.316Z,22.13
2023-03-02T01:43:13.684Z,22.53
2023-03-02T01:45:54.009Z,20.43
2023-03-02T01:48:27.438Z,21.98
2023-03-02T01:50:56.031Z,21.63
2023-03-02T01:53:25.918Z,20.47
2023-03-02T01:55:53.284Z,22.40
2023-03-02T01:58:21.364Z,22.20
2023-03-02T02:00:48.217Z,23.10
2023-03-02T02:03:20.396Z,21.93
2023-03-02T02:05:57.521Z,20.87
2023-03-02T02:08:24.900Z,22.43
2023-03-02T02:10:52.954Z,22.20
2023-03-02T02:13:19.525Z,22.23
2023-03-02T02:15:46.025Z,21.10
2023-03-02T02:18:12.496Z,23.20
2023-03-02T02:20:44.613Z,21.20
2023-03-02T02:23:36.571Z,21.27
2023-03-02T02:26:06.771Z,21.83
2023-03-02T02:28:46.188Z,22.70
2023-03-02T02:31:33.260Z,21.07
2023-03-02T02:34:25.067Z,22.93
2023-03-02T02:36:56.539Z,20.00
2023-03-02T02:39:31.534Z,22.50
2023-03-02T02:42:02.335Z,21.80
2023-03-02T02:46:55.557Z,19.20
2023-03-02T02:49:30.185Z,20.87
2023-03-02T02:51:57.297Z,22.27
2023-03-02T02:54:24.695Z,22.20
2023-03-02T02:56:53.265Z,21.43
2023-03-02T02:59:23.754Z,21.63
2023-03-02T03:01:51.335Z,22.17
2023-03-02T03:04:20.918Z,20.83
2023-03-02T03:07:02.876Z,22.53
2023-03-02T03:09:29.632Z,19.70
2023-03-02T03:12:04.688Z,22.67
2023-03-02T03:14:36.064Z,20.93
2023-03-02T03:17:02.879Z,22.43
2023-03-02T03:19:32.099Z,22.87
2023-03-02T03:22:02.162Z,22.17
2023-03-02T03:24:32.025Z,22.25
2023-03-02T03:26:59.021Z,23.47
2023-03-02T03:29:28.389Z,22.47
2023-03-02T03:31:56.838Z,21.77
2023-03-02T03:34:24.765Z,21.40
2023-03-02T03:36:52.197Z,21.53
2023-03-02T03:39:19.647Z,20.97
2023-03-02T03:41:46.479Z,22.33
2023-03-02T03:44:13.225Z,22.17
2023-03-02T03:46:39.672Z,21.00
2023-03-02T03:49:06.424Z,22.60
2023-03-02T03:51:32.946Z,21.57
2023-03-02T03:53:59.756Z,22.60
2023-03-02T03:56:31.434Z,20.90
2023-03-02T03:58:58.012Z,20.80
2023-03-02T04:01:24.569Z,22.37
2023-03-02T04:03:51.375Z,23.43
2023-03-02T04:06:17.844Z,23.57
2023-03-02T04:08:44.833Z,22.97
2023-03-02T04:11:11.562Z,23.17
2023-03-02T04:13:37.973Z,24.60
2023-03-02T04:16:04.985Z,24.37
2023-03-02T04:18:31.357Z,23.83
2023-03-02T04:20:57.856Z,27.47
2023-03-02T04:23:24.355Z,26.13
2023-03-02T04:25:50.826Z,25.10
2023-03-02T04:28:17.663Z,23.43
2023-03-02T04:30:44.436Z,25.73
2023-03-02T04:33:10.877Z,26.00
2023-03-02T04:35:37.442Z,24.87
2023-03-02T04:38:04.074Z,23.37
2023-03-02T04:40:30.554Z,25.67
2023-03-02T04:42:57.062Z,25.27
2023-03-02T04:45:23.503Z,24.10
2023-03-02T04:47:50.004Z,25.97
2023-03-02T04:50:16.502Z,24.90
2023-03-02T04:52:43.171Z,24.90
2023-03-02T04:55:15.599Z,23.90
2023-03-02T04:57:42.364Z,24.33
2023-03-02T05:00:09.564Z,24.50
2023-03-02T05:02:36.080Z,24.37
2023-03-02T05:05:02.765Z,24.03
2023-03-02T05:07:29.418Z,25.83
2023-03-02T05:09:56.171Z,26.03
2023-03-02T05:12:23.786Z,25.27
2023-03-02T05:14:50.356Z,24.10
2023-03-02T05:17:16.842Z,26.13
2023-03-02T05:19:43.452Z,25.67
2023-03-02T05:22:09.932Z,25.27
2023-03-02T05:24:36.769Z,25.13
2023-03-02T05:27:03.210Z,23.40
2023-03-02T05:29:29.774Z,24.47
2023-03-02T05:31:56.841Z,24.43
2023-03-02T05:34:23.482Z,24.23
2023-03-02T05:36:50.074Z,23.83
2023-03-02T05:39:16.705Z,25.53
2023-03-02T05:41:43.129Z,25.83
2023-03-02T05:44:10.037Z,24.57
2023-03-02T05:46:37.001Z,26.37
2023-03-02T05:49:04.178Z,27.13
2023-03-02T05:51:30.653Z,24.67
2023-03-02T05:53:57.185Z,26.47
2023-03-02T05:56:23.716Z,25.40
2023-03-02T05:58:50.205Z,26.03
2023-03-02T06:01:16.596Z,25.33
2023-03-02T06:03:43.913Z,26.87
2023-03-02T06:06:11.007Z,28.83
2023-03-02T06:08:37.540Z,26.80
2023-03-02T06:11:04.523Z,26.43
2023-03-02T06:13:30.939Z,28.47
2023-03-02T06:15:58.630Z,24.07
2023-03-02T06:18:25.100Z,25.43
2023-03-02T06:20:51.541Z,26.00
2023-03-02T06:23:18.309Z,23.77
2023-03-02T06:25:44.937Z,25.07
2023-03-02T06:28:11.410Z,24.97
2023-03-02T06:30:37.852Z,26.93
2023-03-02T06:33:04.219Z,33.20
2023-03-02T06:35:31.070Z,28.80
2023-03-02T06:37:57.965Z,24.40
2023-03-02T06:40:24.965Z,26.13
2023-03-02T06:42:51.585Z,23.07
2023-03-02T06:45:18.199Z,25.57
2023-03-02T06:47:44.818Z,26.17
2023-03-02T06:50:11.797Z,24.80
2023-03-02T06:52:38.234Z,26.07
2023-03-02T06:55:05.458Z,26.17
2023-03-02T06:57:32.633Z,24.03
2023-03-02T07:00:00.443Z,25.20
2023-03-02T07:02:26.856Z,24.37
2023-03-02T07:04:53.277Z,23.47
2023-03-02T07:07:19.812Z,24.00
2023-03-02T07:09:46.690Z,26.17
2023-03-02T07:12:13.211Z,24.30
2023-03-02T07:14:43.492Z,23.60
2023-03-02T07:17:10.106Z,20.75
2023-03-02T07:19:38.396Z,21.20
2023-03-02T07:22:07.684Z,23.57
2023-03-02T07:24:34.070Z,20.13
2023-03-02T07:27:00.790Z,21.50
2023-03-02T07:29:27.281Z,19.60
2023-03-02T07:31:54.098Z,20.77
2023-03-02T07:34:20.575Z,19.40
2023-03-02T07:36:47.032Z,19.40
2023-03-02T07:39:13.593Z,20.07
2023-03-02T07:41:40.128Z,19.50
2023-03-02T07:44:06.621Z,18.73
2023-03-02T07:46:33.254Z,17.80
2023-03-02T07:48:59.770Z,19.27
2023-03-02T07:51:26.838Z,18.93
2023-03-02T07:53:53.414Z,19.03
2023-03-02T07:56:20.018Z,20.70
2023-03-02T07:58:47.378Z,19.75
2023-03-02T08:01:14.189Z,20.08
2023-03-02T08:03:41.111Z,20.42
2023-03-02T08:06:10.407Z,19.85
2023-03-02T08:08:38.190Z,18.15
2023-03-02T08:11:07.269Z,20.13
2023-03-02T08:13:33.778Z,18.92
2023-03-02T08:16:04.800Z,20.30
2023-03-02T08:18:31.682Z,17.38
2023-03-02T08:20:58.576Z,17.55
2023-03-02T08:23:26.115Z,19.17
2023-03-02T08:25:53.836Z,18.38
2023-03-02T08:28:22.057Z,17.83
2023-03-02T08:30:56.287Z,18.75
2023-03-02T08:33:23.290Z,18.38
2023-03-02T08:36:21.300Z,18.23
2023-03-02T08:38:49.598Z,18.55
2023-03-02T08:41:19.332Z,17.05
2023-03-02T08:43:46.155Z,18.98
2023-03-02T08:46:14.851Z,17.77
2023-03-02T08:48:41.425Z,19.88
2023-03-02T08:51:12.308Z,19.58
2023-03-02T08:56:20.781Z,16.25
2023-03-02T08:58:51.366Z,19.27
2023-03-02T09:01:21.182Z,20.00
2023-03-02T09:03:47.741Z,19.00
2023-03-02T09:06:14.326Z,20.08
2023-03-02T09:08:40.879Z,18.73
2023-03-02T09:11:07.653Z,19.67
2023-03-02T09:13:34.923Z,18.73
2023-03-02T09:16:01.534Z,18.38
2023-03-02T09:18:30.369Z,19.27
2023-03-02T09:20:57.559Z,18.38
2023-03-02T09:23:25.506Z,18.15
2023-03-02T09:25:58.398Z,18.58
2023-03-02T09:28:28.786Z,16.58
2023-03-02T09:31:16.772Z,17.73
2023-03-02T09:33:43.421Z,17.33
2023-03-02T09:36:12.015Z,17.30
2023-03-02T09:38:38.658Z,16.35
2023-03-02T09:41:20.350Z,16.95
2023-03-02T09:44:08.556Z,17.55
2023-03-02T09:46:50.272Z,17.25
2023-03-02T09:49:53.066Z,17.88
2023-03-02T09:52:30.504Z,17.58
2023-03-02T09:55:01.740Z,18.80
2023-03-02T09:57:35.059Z,18.35
2023-03-02T10:00:21.803Z,18.25
2023-03-02T10:02:56.223Z,18.45
2023-03-02T10:05:38.441Z,17.88
2023-03-02T10:08:22.596Z,18.42
2023-03-02T10:11:07.750Z,17.48
2023-03-02T10:14:03.955Z,19.13
2023-03-02T10:16:45.116Z,16.42
2023-03-02T10:19:31.267Z,17.33
2023-03-02T10:22:26.216Z,16.40
2023-03-02T10:25:23.286Z,17.92
2023-03-02T10:27:56.729Z,18.38
2023-03-02T10:30:39.153Z,16.70
2023-03-02T10:33:21.806Z,18.15
2023-03-02T10:35:54.181Z,18.15
2023-03-02T10:38:24.744Z,17.65
2023-03-02T10:41:02.851Z,18.10
2023-03-02T10:43:38.174Z,16.67
2023-03-02T10:46:08.105Z,16.15
2023-03-02T10:48:52.831Z,18.43
2023-03-02T10:51:26.193Z,18.77
2023-03-02T10:54:12.378Z,17.98
2023-03-02T10:56:43.306Z,18.92
2023-03-02T11:02:15.002Z,17.45
2023-03-02T11:04:41.859Z,16.83
2023-03-02T11:07:17.943Z,18.58
2023-03-02T11:09:59.792Z,18.13
2023-03-02T11:12:26.829Z,19.05
2023-03-02T11:15:25.530Z,18.05
2023-03-02T11:18:12.124Z,19.27
2023-03-02T11:20:42.249Z,20.42
2023-03-02T11:23:48.074Z,18.58
2023-03-02T11:26:34.710Z,18.05
2023-03-02T11:29:09.003Z,18.95
2023-03-02T11:31:50.255Z,19.15
2023-03-02T11:34:44.380Z,22.02
2023-03-02T11:37:45.737Z,20.55
2023-03-02T11:40:25.047Z,19.58
2023-03-02T11:42:53.246Z,19.00
2023-03-02T11:45:29.806Z,18.75
2023-03-02T11:48:09.782Z,19.33
2023-03-02T11:50:45.745Z,18.97
2023-03-02T11:53:16.864Z,16.80
2023-03-02T11:55:46.573Z,17.67
2023-03-02T11:58:23.211Z,17.88
2023-03-02T12:00:51.067Z,19.42
2023-03-02T12:03:37.676Z,18.45
2023-03-02T12:06:15.307Z,19.10
2023-03-02T12:08:46.267Z,18.88
2023-03-02T12:11:18.825Z,18.02
2023-03-02T12:13:58.845Z,19.77
2023-03-02T12:16:40.255Z,19.73
2023-03-02T12:19:14.155Z,19.38
2023-03-02T12:21:44.413Z,20.08
2023-03-02T12:24:35.176Z,25.48
2023-03-02T12:27:06.662Z,18.88
2023-03-02T12:29:39.232Z,20.13
2023-03-02T12:32:42.220Z,19.85
2023-03-02T12:35:08.592Z,20.45
2023-03-02T12:37:52.130Z,21.30
2023-03-02T12:40:40.527Z,21.38
2023-03-02T12:43:27.759Z,21.38
2023-03-02T12:46:27.640Z,19.88
2023-03-02T12:49:22.446Z,18.90
2023-03-02T12:51:57.240Z,20.30
2023-03-02T12:54:31.919Z,20.45
2023-03-02T12:57:07.938Z,21.20
2023-03-02T12:59:35.093Z,20.92
2023-03-02T13:02:14.538Z,20.42
2023-03-02T13:04:41.675Z,21.02
2023-03-02T13:07:17.173Z,22.27
2023-03-02T13:09:55.653Z,20.45
2023-03-02T13:12:23.566Z,20.38
2023-03-02T13:14:54.571Z,20.42
2023-03-02T13:17:31.572Z,20.83
2023-03-02T13:19:59.685Z,20.45
2023-03-02T13:22:27.188Z,19.85
2023-03-02T13:25:00.867Z,21.38
2023-03-02T13:27:28.365Z,21.23
2023-03-02T13:29:55.583Z,19.55
2023-03-02T13:32:34.985Z,20.58
2023-03-02T13:35:02.100Z,21.10
2023-03-02T13:37:39.730Z,20.95
2023-03-02T13:43:31.369Z,20.83
2023-03-02T13:45:59.275Z,20.08
2023-03-02T13:48:26.352Z,19.52
2023-03-02T13:51:03.809Z,21.98
2023-03-02T13:53:32.496Z,22.38
2023-03-02T13:55:59.632Z,20.52
2023-03-02T13:58:27.177Z,21.17
2023-03-02T14:00:53.947Z,21.50
2023-03-02T14:03:32.423Z,21.38
2023-03-02T14:06:00.005Z,22.13
2023-03-02T14:08:26.580Z,20.77
2023-03-02T14:10:56.123Z,19.77
2023-03-02T14:13:35.792Z,20.73
2023-03-02T14:16:06.001Z,20.38
2023-03-02T14:18:57.219Z,19.75
2023-03-02T14:21:31.046Z,20.30
2023-03-02T14:23:58.392Z,20.73
2023-03-02T14:26:51.573Z,20.35
2023-03-02T14:29:35.777Z,20.27
2023-03-02T14:32:04.120Z,19.48
2023-03-02T14:34:37.060Z,21.52
2023-03-02T14:37:15.856Z,19.50
2023-03-02T14:39:47.286Z,19.00
2023-03-02T14:42:16.631Z,20.45
2023-03-02T14:44:44.651Z,18.98
2023-03-02T14:47:13.810Z,18.60
2023-03-02T14:49:45.029Z,18.67
2023-03-02T14:52:21.015Z,20.33
2023-03-02T14:54:53.810Z,19.80
2023-03-02T14:57:23.216Z,19.25
2023-03-02T14:59:49.650Z,20.42
2023-03-02T15:02:25.339Z,18.83
2023-03-02T15:04:56.413Z,19.88
2023-03-02T15:09:50.509Z,18.08
2023-03-02T15:12:17.025Z,21.70
2023-03-02T15:14:43.903Z,19.67
2023-03-02T15:17:10.421Z,17.88
2023-03-02T15:19:36.981Z,20.15
2023-03-02T15:22:04.651Z,20.42
2023-03-02T15:24:33.265Z,21.08
2023-03-02T15:27:00.636Z,19.73
2023-03-02T15:29:27.208Z,18.15
2023-03-02T15:31:53.919Z,19.75
2023-03-02T15:34:20.635Z,19.40
2023-03-02T15:36:47.277Z,19.00
2023-03-02T15:39:14.779Z,18.70
2023-03-02T15:41:41.862Z,20.60
2023-03-02T15:44:18.275Z,18.25
2023-03-02T15:46:47.278Z,19.13
2023-03-02T15:49:14.151Z,19.33
2023-03-02T15:51:40.909Z,19.85
2023-03-02T15:54:07.424Z,18.17
2023-03-02T15:56:43.727Z,20.15
2023-03-02T15:59:11.325Z,20.33
2023-03-02T16:01:37.899Z,21.35
2023-03-02T16:04:04.362Z,20.92
2023-03-02T16:06:39.269Z,21.27
2023-03-02T16:09:06.053Z,22.02
2023-03-02T16:11:32.707Z,21.08
2023-03-02T16:13:59.135Z,21.83
2023-03-02T16:16:25.870Z,21.58
2023-03-02T16:18:54.442Z,20.67
2023-03-02T16:21:21.548Z,21.38
2023-03-02T16:23:52.353Z,20.58
2023-03-02T16:26:21.064Z,21.40
2023-03-02T16:28:48.287Z,21.23
2023-03-02T16:31:17.714Z,21.42
2023-03-02T16:33:45.168Z,19.77
2023-03-02T16:36:12.939Z,21.50
2023-03-02T16:38:40.427Z,22.90
2023-03-02T16:41:27.160Z,21.70
2023-03-02T16:43:56.768Z,22.70
2023-03-02T16:46:24.913Z,21.63
2023-03-02T16:48:51.424Z,22.70
2023-03-02T16:51:19.612Z,21.85
2023-03-02T16:53:47.070Z,22.83
2023-03-02T16:56:14.021Z,21.60
2023-03-02T16:58:41.529Z,23.77
2023-03-02T17:01:19.765Z,24.02
2023-03-02T17:03:47.893Z,23.50
2023-03-02T17:06:16.276Z,22.63
2023-03-02T17:08:43.920Z,21.00
2023-03-02T17:11:10.545Z,22.40
2023-03-02T17:13:37.461Z,23.98
2023-03-02T17:16:04.819Z,24.67
2023-03-02T17:18:32.323Z,23.50
2023-03-02T17:20:59.831Z,23.33
2023-03-02T17:23:27.759Z,23.85
2023-03-02T17:25:55.870Z,23.20
2023-03-02T17:28:24.152Z,23.98
2023-03-02T17:30:50.734Z,23.52
2023-03-02T17:33:17.245Z,24.92
2023-03-02T17:35:43.811Z,24.45
2023-03-02T17:38:10.880Z,24.13
2023-03-02T17:40:37.994Z,22.98
2023-03-02T17:43:04.886Z,24.33
2023-03-02T17:45:32.512Z,23.80
2023-03-02T17:48:03.080Z,22.75
2023-03-02T17:50:30.766Z,24.65
2023-03-02T17:52:59.189Z,25.35
2023-03-02T17:55:26.931Z,22.92
2023-03-02T17:57:54.014Z,23.02
2023-03-02T18:00:22.394Z,25.30
2023-03-02T18:02:50.010Z,24.80
2023-03-02T18:05:16.823Z,23.98
2023-03-02T18:07:43.285Z,25.13
2023-03-02T18:10:10.728Z,24.73
2023-03-02T18:12:43.555Z,25.17
2023-03-02T18:15:11.295Z,24.17
2023-03-02T18:17:39.094Z,26.17
2023-03-02T18:20:06.102Z,25.90
2023-03-02T18:22:32.750Z,25.00
2023-03-02T18:24:59.291Z,24.10
2023-03-02T18:27:25.753Z,26.10
2023-03-02T18:29:52.326Z,26.38
2023-03-02T18:32:18.989Z,25.50
2023-03-02T18:34:45.847Z,24.83
2023-03-02T18:37:12.359Z,26.73
2023-03-02T18:39:39.099Z,25.88
2023-03-02T18:42:07.103Z,25.15
2023-03-02T18:44:35.099Z,26.15
2023-03-02T18:47:02.774Z,26.65
2023-03-02T18:49:30.368Z,25.55
2023-03-02T18:51:57.322Z,24.73
2023-03-02T18:54:24.013Z,26.00
2023-03-02T18:56:50.856Z,25.58
2023-03-02T18:59:18.776Z,26.45
2023-03-02T19:01:47.844Z,25.45
2023-03-02T19:04:15.050Z,26.52
2023-03-02T19:06:42.979Z,25.13
2023-03-02T19:09:10.671Z,25.40
2023-03-02T19:11:38.606Z,27.58
2023-03-02T19:14:05.088Z,27.20
2023-03-02T19:16:32.005Z,26.92
2023-03-02T19:18:58.850Z,27.30
2023-03-02T19:21:25.535Z,28.45
2023-03-02T19:24:02.275Z,28.48
2023-03-02T19:26:28.765Z,29.25
2023-03-02T19:28:55.219Z,28.05
2023-03-02T19:31:22.255Z,28.63
2023-03-02T19:33:48.687Z,28.73
2023-03-02T19:36:15.467Z,27.80
2023-03-02T19:38:41.933Z,28.63
2023-03-02T19:41:17.386Z,28.88
2023-03-02T19:43:44.224Z,27.40
2023-03-02T19:46:10.954Z,26.33
2023-03-02T19:48:38.751Z,29.10
2023-03-02T19:51:06.975Z,28.25
2023-03-02T19:53:34.676Z,27.35
2023-03-02T19:56:02.332Z,28.05
2023-03-02T19:58:29.805Z,27.98
2023-03-02T20:00:56.238Z,28.92
2023-03-02T20:03:22.678Z,28.08
2023-03-02T20:05:49.998Z,26.05
2023-03-02T20:08:17.087Z,28.65
2023-03-02T20:10:46.832Z,27.02
2023-03-02T20:13:13.452Z,27.48
2023-03-02T20:15:42.616Z,29.45
2023-03-02T20:18:12.447Z,26.35
2023-03-02T20:20:38.973Z,28.77
2023-03-02T20:23:06.329Z,27.80
2023-03-02T20:25:36.558Z,29.75
2023-03-02T20:28:04.699Z,30.45
2023-03-02T20:30:45.551Z,29.38
2023-03-02T20:33:13.335Z,30.45
2023-03-02T20:35:42.350Z,30.25
2023-03-02T20:38:16.136Z,31.35
2023-03-02T20:40:44.126Z,29.52
2023-03-02T20:43:10.982Z,30.75
2023-03-02T20:45:38.329Z,29.40
2023-03-02T20:48:05.122Z,31.23
2023-03-02T20:50:34.096Z,31.20
2023-03-02T20:53:01.688Z,31.05
2023-03-02T20:55:29.836Z,31.02
2023-03-02T20:57:58.670Z,32.60
2023-03-02T21:00:27.606Z,30.38
2023-03-02T21:02:54.275Z,31.47
2023-03-02T21:05:21.589Z,32.17
2023-03-02T21:07:49.225Z,32.75
2023-03-02T21:10:22.217Z,31.45
2023-03-02T21:12:48.897Z,30.00
2023-03-02T21:15:16.946Z,30.25
2023-03-02T21:17:43.362Z,32.45
2023-03-02T21:20:11.257Z,31.90
2023-03-02T21:22:39.026Z,31.77
2023-03-02T21:25:06.248Z,32.25
2023-03-02T21:27:32.655Z,31.40
2023-03-02T21:29:59.105Z,32.00
2023-03-02T21:32:25.589Z,31.73
2023-03-02T21:34:52.069Z,32.75
2023-03-02T21:37:18.895Z,31.63
2023-03-02T21:39:45.735Z,31.40
2023-03-02T21:42:12.533Z,30.53
2023-03-02T21:44:39.056Z,31.43
2023-03-02T21:47:06.132Z,31.27
2023-03-02T21:49:32.674Z,31.53
2023-03-02T21:51:59.165Z,31.40
2023-03-02T21:54:25.663Z,31.57
2023-03-02T21:56:52.078Z,31.67
2023-03-02T21:59:18.431Z,31.57
2023-03-02T22:01:45.056Z,32.50
2023-03-02T22:04:11.414Z,31.60
2023-03-02T22:06:37.775Z,33.27
2023-03-02T22:09:04.824Z,32.27
2023-03-02T22:11:36.076Z,32.67
2023-03-02T22:14:10.958Z,31.43
2023-03-02T22:16:39.762Z,31.73
2023-03-02T22:19:28.613Z,34.03
2023-03-02T22:21:57.444Z,31.87
2023-03-02T22:24:29.077Z,34.07
2023-03-02T22:27:09.056Z,32.23
2023-03-02T22:29:46.608Z,31.83
2023-03-02T22:32:17.641Z,31.07
2023-03-02T22:34:46.594Z,31.03
2023-03-02T22:37:21.988Z,31.17
2023-03-02T22:39:49.996Z,33.10
2023-03-02T22:42:22.801Z,33.40
2023-03-02T22:44:58.407Z,34.63
2023-03-02T22:47:25.219Z,34.33
2023-03-02T22:50:26.233Z,34.30
2023-03-02T22:52:54.137Z,35.92
2023-03-02T22:55:39.382Z,34.90
2023-03-02T22:58:29.878Z,35.63
2023-03-02T23:01:00.681Z,37.75
2023-03-02T23:05:59.771Z,36.07
2023-03-02T23:08:30.172Z,33.93
2023-03-02T23:10:58.744Z,34.47
2023-03-02T23:13:36.400Z,33.70
2023-03-02T23:16:19.995Z,34.47
2023-03-02T23:18:48.166Z,33.90
2023-03-02T23:21:17.634Z,34.88
2023-03-02T23:23:44.396Z,32.25
2023-03-02T23:26:11.000Z,35.80
2023-03-02T23:28:37.732Z,37.00
2023-03-02T23:31:05.389Z,35.30
2023-03-02T23:33:32.131Z,34.45
2023-03-02T23:35:58.824Z,34.47
2023-03-02T23:38:25.583Z,35.80
2023-03-02T23:40:52.042Z,33.90
2023-03-02T23:43:18.506Z,34.85
2023-03-02T23:45:45.060Z,36.27
2023-03-02T23:48:11.563Z,35.25
2023-03-02T23:50:38.503Z,34.17
2023-03-02T23:53:05.291Z,34.53
2023-03-02T23:55:32.586Z,35.93
2023-03-02T23:57:59.019Z,34.67
